sensor_id;sensor_type;location;lat;lon;timestamp;P1;durP1;ratioP1;P2;durP2;ratioP2
37647;SDS011;23490;53.656;10.076;2023-02-17T00:01:27;54.45;;;30.65;;
37647;SDS011;23490;53.656;10.076;2023-02-17T00:03:52;52.15;;;30.85;;
37647;SDS011;23490;53.656;10.076;2023-02-17T00:06:20;53.28;;;32.03;;
37647;SDS011;23490;53.656;10.076;2023-02-17T00:08:47;51.95;;;30.38;;
37647;SDS011;23490;53.656;10.076;2023-02-17T00:11:13;50.25;;;29.90;;
37647;SDS011;23490;53.656;10.076;2023-02-17T00:13:38;53.92;;;31.30;;
37647;SDS011;23490;53.656;10.076;2023-02-17T00:16:05;52.83;;;30.67;;
37647;SDS011;23490;53.656;10.076;2023-02-17T00:18:35;57.45;;;32.35;;
37647;SDS011;23490;53.656;10.076;2023-02-17T00:21:09;50.97;;;30.23;;
37647;SDS011;23490;53.656;10.076;2023-02-17T00:23:35;55.25;;;31.85;;
37647;SDS011;23490;53.656;10.076;2023-02-17T00:26:03;55.92;;;31.55;;
37647;SDS011;23490;53.656;10.076;2023-02-17T00:28:29;50.38;;;28.88;;
37647;SDS011;23490;53.656;10.076;2023-02-17T00:30:54;53.42;;;30.30;;
37647;SDS011;23490;53.656;10.076;2023-02-17T00:33:20;51.97;;;30.65;;
37647;SDS011;23490;53.656;10.076;2023-02-17T00:35:45;53.28;;;30.77;;
37647;SDS011;23490;53.656;10.076;2023-02-17T00:38:10;52.83;;;30.08;;
37647;SDS011;23490;53.656;10.076;2023-02-17T00:40:35;53.05;;;29.80;;
37647;SDS011;23490;53.656;10.076;2023-02-17T00:43:01;54.58;;;30.55;;
37647;SDS011;23490;53.656;10.076;2023-02-17T00:45:26;56.83;;;30.63;;
37647;SDS011;23490;53.656;10.076;2023-02-17T00:47:51;55.15;;;29.55;;
37647;SDS011;23490;53.656;10.076;2023-02-17T00:50:17;57.70;;;32.03;;
37647;SDS011;23490;53.656;10.076;2023-02-17T00:52:42;60.60;;;33.20;;
37647;SDS011;23490;53.656;10.076;2023-02-17T00:55:07;54.45;;;29.70;;
37647;SDS011;23490;53.656;10.076;2023-02-17T00:57:33;55.25;;;30.25;;
37647;SDS011;23490;53.656;10.076;2023-02-17T00:59:58;55.03;;;30.13;;
37647;SDS011;23490;53.656;10.076;2023-02-17T01:02:23;56.80;;;32.10;;
37647;SDS011;23490;53.656;10.076;2023-02-17T01:04:49;56.40;;;31.73;;
37647;SDS011;23490;53.656;10.076;2023-02-17T01:07:14;53.05;;;30.65;;
37647;SDS011;23490;53.656;10.076;2023-02-17T01:09:40;53.63;;;29.67;;
37647;SDS011;23490;53.656;10.076;2023-02-17T01:12:05;58.50;;;31.33;;
37647;SDS011;23490;53.656;10.076;2023-02-17T01:14:30;57.42;;;31.33;;
37647;SDS011;23490;53.656;10.076;2023-02-17T01:16:56;58.28;;;31.85;;
37647;SDS011;23490;53.656;10.076;2023-02-17T01:19:21;58.83;;;31.08;;
37647;SDS011;23490;53.656;10.076;2023-02-17T01:21:46;58.10;;;32.45;;
37647;SDS011;23490;53.656;10.076;2023-02-17T01:24:12;56.47;;;31.25;;
37647;SDS011;23490;53.656;10.076;2023-02-17T01:26:38;56.83;;;29.30;;
37647;SDS011;23490;53.656;10.076;2023-02-17T01:29:04;52.20;;;29.60;;
37647;SDS011;23490;53.656;10.076;2023-02-17T01:31:30;56.03;;;29.67;;
37647;SDS011;23490;53.656;10.076;2023-02-17T01:33:56;56.58;;;31.10;;
37647;SDS011;23490;53.656;10.076;2023-02-17T01:36:24;57.08;;;30.45;;
37647;SDS011;23490;53.656;10.076;2023-02-17T01:38:50;53.45;;;29.95;;
37647;SDS011;23490;53.656;10.076;2023-02-17T01:41:16;55.00;;;30.30;;
37647;SDS011;23490;53.656;10.076;2023-02-17T01:44:02;55.95;;;30.33;;
37647;SDS011;23490;53.656;10.076;2023-02-17T01:46:30;52.72;;;29.85;;
37647;SDS011;23490;53.656;10.076;2023-02-17T01:48:56;52.90;;;28.60;;
37647;SDS011;23490;53.656;10.076;2023-02-17T01:51:25;49.63;;;27.25;;
37647;SDS011;23490;53.656;10.076;2023-02-17T01:56:23;52.38;;;29.13;;
37647;SDS011;23490;53.656;10.076;2023-02-17T01:58:57;50.72;;;28.63;;
37647;SDS011;23490;53.656;10.076;2023-02-17T02:01:27;49.75;;;26.75;;
37647;SDS011;23490;53.656;10.076;2023-02-17T02:03:53;46.53;;;25.98;;
37647;SDS011;23490;53.656;10.076;2023-02-17T02:06:21;48.75;;;28.00;;
37647;SDS011;23490;53.656;10.076;2023-02-17T02:11:25;46.72;;;27.00;;
37647;SDS011;23490;53.656;10.076;2023-02-17T02:13:51;44.95;;;26.10;;
37647;SDS011;23490;53.656;10.076;2023-02-17T02:22:01;46.88;;;25.65;;
37647;SDS011;23490;53.656;10.076;2023-02-17T02:24:38;46.60;;;25.10;;
37647;SDS011;23490;53.656;10.076;2023-02-17T02:27:25;41.67;;;24.00;;
37647;SDS011;23490;53.656;10.076;2023-02-17T02:30:14;44.97;;;24.98;;
37647;SDS011;23490;53.656;10.076;2023-02-17T02:33:06;43.63;;;24.08;;
37647;SDS011;23490;53.656;10.076;2023-02-17T02:38:36;43.63;;;24.05;;
37647;SDS011;23490;53.656;10.076;2023-02-17T02:41:08;42.53;;;23.30;;
37647;SDS011;23490;53.656;10.076;2023-02-17T02:43:39;42.97;;;22.92;;
37647;SDS011;23490;53.656;10.076;2023-02-17T02:46:05;38.60;;;21.40;;
37647;SDS011;23490;53.656;10.076;2023-02-17T02:48:31;43.92;;;23.42;;
37647;SDS011;23490;53.656;10.076;2023-02-17T02:53:48;39.50;;;22.35;;
37647;SDS011;23490;53.656;10.076;2023-02-17T02:56:31;41.50;;;22.27;;
37647;SDS011;23490;53.656;10.076;2023-02-17T03:05:06;38.58;;;21.02;;
37647;SDS011;23490;53.656;10.076;2023-02-17T03:07:37;40.88;;;21.67;;
37647;SDS011;23490;53.656;10.076;2023-02-17T03:10:07;37.85;;;20.77;;
37647;SDS011;23490;53.656;10.076;2023-02-17T03:12:34;37.17;;;19.65;;
37647;SDS011;23490;53.656;10.076;2023-02-17T03:15:03;37.60;;;20.25;;
37647;SDS011;23490;53.656;10.076;2023-02-17T03:17:48;34.13;;;20.13;;
37647;SDS011;23490;53.656;10.076;2023-02-17T03:20:14;31.65;;;18.10;;
37647;SDS011;23490;53.656;10.076;2023-02-17T03:22:40;34.40;;;17.92;;
37647;SDS011;23490;53.656;10.076;2023-02-17T03:25:09;33.80;;;18.03;;
37647;SDS011;23490;53.656;10.076;2023-02-17T03:27:34;33.35;;;18.15;;
37647;SDS011;23490;53.656;10.076;2023-02-17T03:30:00;34.10;;;18.52;;
37647;SDS011;23490;53.656;10.076;2023-02-17T03:32:25;33.45;;;18.23;;
37647;SDS011;23490;53.656;10.076;2023-02-17T03:34:51;31.35;;;16.90;;
37647;SDS011;23490;53.656;10.076;2023-02-17T03:37:16;30.10;;;16.92;;
37647;SDS011;23490;53.656;10.076;2023-02-17T03:39:41;32.33;;;17.00;;
37647;SDS011;23490;53.656;10.076;2023-02-17T03:42:07;28.30;;;15.32;;
37647;SDS011;23490;53.656;10.076;2023-02-17T03:44:32;32.10;;;17.73;;
37647;SDS011;23490;53.656;10.076;2023-02-17T03:46:57;27.92;;;15.40;;
37647;SDS011;23490;53.656;10.076;2023-02-17T03:49:23;29.83;;;16.52;;
37647;SDS011;23490;53.656;10.076;2023-02-17T03:51:49;28.92;;;15.98;;
37647;SDS011;23490;53.656;10.076;2023-02-17T03:54:14;28.27;;;15.73;;
37647;SDS011;23490;53.656;10.076;2023-02-17T03:56:40;31.55;;;17.25;;
37647;SDS011;23490;53.656;10.076;2023-02-17T03:59:05;28.83;;;16.15;;
37647;SDS011;23490;53.656;10.076;2023-02-17T04:01:30;30.25;;;15.85;;
37647;SDS011;23490;53.656;10.076;2023-02-17T04:03:56;30.15;;;16.45;;
37647;SDS011;23490;53.656;10.076;2023-02-17T04:06:21;29.55;;;15.55;;
37647;SDS011;23490;53.656;10.076;2023-02-17T04:08:46;32.65;;;16.17;;
37647;SDS011;23490;53.656;10.076;2023-02-17T04:11:12;29.38;;;15.48;;
37647;SDS011;23490;53.656;10.076;2023-02-17T04:13:37;32.00;;;16.45;;
37647;SDS011;23490;53.656;10.076;2023-02-17T04:16:05;29.42;;;15.35;;
37647;SDS011;23490;53.656;10.076;2023-02-17T04:18:31;29.13;;;15.63;;
37647;SDS011;23490;53.656;10.076;2023-02-17T04:20:57;28.98;;;15.43;;
37647;SDS011;23490;53.656;10.076;2023-02-17T04:23:23;26.00;;;14.10;;
37647;SDS011;23490;53.656;10.076;2023-02-17T04:25:48;26.25;;;14.63;;
37647;SDS011;23490;53.656;10.076;2023-02-17T04:28:14;31.50;;;16.15;;
37647;SDS011;23490;53.656;10.076;2023-02-17T04:30:46;29.95;;;15.65;;
37647;SDS011;23490;53.656;10.076;2023-02-17T04:33:13;32.25;;;16.02;;
37647;SDS011;23490;53.656;10.076;2023-02-17T04:35:39;32.17;;;16.67;;
37647;SDS011;23490;53.656;10.076;2023-02-17T04:38:05;28.63;;;15.02;;
37647;SDS011;23490;53.656;10.076;2023-02-17T04:40:31;31.58;;;16.23;;
37647;SDS011;23490;53.656;10.076;2023-02-17T04:42:57;30.02;;;15.73;;
37647;SDS011;23490;53.656;10.076;2023-02-17T04:45:22;30.65;;;16.65;;
37647;SDS011;23490;53.656;10.076;2023-02-17T04:47:48;29.25;;;15.13;;
37647;SDS011;23490;53.656;10.076;2023-02-17T04:50:13;29.30;;;14.73;;
37647;SDS011;23490;53.656;10.076;2023-02-17T04:52:39;31.33;;;14.65;;
37647;SDS011;23490;53.656;10.076;2023-02-17T04:55:04;32.22;;;16.70;;
37647;SDS011;23490;53.656;10.076;2023-02-17T04:57:31;29.60;;;14.93;;
37647;SDS011;23490;53.656;10.076;2023-02-17T04:59:56;30.77;;;16.40;;
37647;SDS011;23490;53.656;10.076;2023-02-17T05:02:22;31.48;;;15.25;;
37647;SDS011;23490;53.656;10.076;2023-02-17T05:04:47;30.23;;;15.90;;
37647;SDS011;23490;53.656;10.076;2023-02-17T05:07:13;28.98;;;15.75;;
37647;SDS011;23490;53.656;10.076;2023-02-17T05:09:38;31.42;;;16.60;;
37647;SDS011;23490;53.656;10.076;2023-02-17T05:12:05;28.27;;;15.25;;
37647;SDS011;23490;53.656;10.076;2023-02-17T05:14:31;28.83;;;15.35;;
37647;SDS011;23490;53.656;10.076;2023-02-17T05:16:57;32.10;;;15.63;;
37647;SDS011;23490;53.656;10.076;2023-02-17T05:19:22;31.88;;;15.63;;
37647;SDS011;23490;53.656;10.076;2023-02-17T05:21:48;29.40;;;16.10;;
37647;SDS011;23490;53.656;10.076;2023-02-17T05:24:14;31.95;;;16.48;;
37647;SDS011;23490;53.656;10.076;2023-02-17T05:26:39;33.30;;;15.95;;
37647;SDS011;23490;53.656;10.076;2023-02-17T05:29:04;31.33;;;16.40;;
37647;SDS011;23490;53.656;10.076;2023-02-17T05:31:30;31.58;;;16.13;;
37647;SDS011;23490;53.656;10.076;2023-02-17T05:33:55;30.27;;;15.10;;
37647;SDS011;23490;53.656;10.076;2023-02-17T05:36:20;34.20;;;15.32;;
37647;SDS011;23490;53.656;10.076;2023-02-17T05:38:46;34.30;;;15.77;;
37647;SDS011;23490;53.656;10.076;2023-02-17T05:41:17;33.40;;;15.07;;
37647;SDS011;23490;53.656;10.076;2023-02-17T05:43:43;31.23;;;15.57;;
37647;SDS011;23490;53.656;10.076;2023-02-17T05:46:09;30.48;;;14.70;;
37647;SDS011;23490;53.656;10.076;2023-02-17T05:48:34;33.55;;;15.65;;
37647;SDS011;23490;53.656;10.076;2023-02-17T05:51:00;30.98;;;15.07;;
37647;SDS011;23490;53.656;10.076;2023-02-17T05:53:25;33.97;;;15.35;;
37647;SDS011;23490;53.656;10.076;2023-02-17T05:55:51;32.70;;;15.25;;
37647;SDS011;23490;53.656;10.076;2023-02-17T05:58:16;33.35;;;15.52;;
37647;SDS011;23490;53.656;10.076;2023-02-17T06:00:41;34.92;;;16.67;;
37647;SDS011;23490;53.656;10.076;2023-02-17T06:03:07;35.33;;;15.98;;
37647;SDS011;23490;53.656;10.076;2023-02-17T06:05:32;33.08;;;15.73;;
37647;SDS011;23490;53.656;10.076;2023-02-17T06:07:58;35.25;;;17.00;;
37647;SDS011;23490;53.656;10.076;2023-02-17T06:10:23;38.20;;;18.00;;
37647;SDS011;23490;53.656;10.076;2023-02-17T06:12:48;38.20;;;16.85;;
37647;SDS011;23490;53.656;10.076;2023-02-17T06:15:14;36.20;;;16.25;;
37647;SDS011;23490;53.656;10.076;2023-02-17T06:17:39;38.05;;;17.65;;
37647;SDS011;23490;53.656;10.076;2023-02-17T06:20:05;39.22;;;17.98;;
37647;SDS011;23490;53.656;10.076;2023-02-17T06:22:31;40.17;;;18.50;;
37647;SDS011;23490;53.656;10.076;2023-02-17T06:24:56;46.40;;;20.50;;
37647;SDS011;23490;53.656;10.076;2023-02-17T06:27:22;42.40;;;19.17;;
37647;SDS011;23490;53.656;10.076;2023-02-17T06:29:47;40.35;;;19.38;;
37647;SDS011;23490;53.656;10.076;2023-02-17T06:32:12;46.15;;;19.60;;
37647;SDS011;23490;53.656;10.076;2023-02-17T06:34:37;41.88;;;19.38;;
37647;SDS011;23490;53.656;10.076;2023-02-17T06:37:03;43.65;;;18.50;;
37647;SDS011;23490;53.656;10.076;2023-02-17T06:39:28;37.45;;;17.77;;
37647;SDS011;23490;53.656;10.076;2023-02-17T06:41:54;37.67;;;17.77;;
37647;SDS011;23490;53.656;10.076;2023-02-17T06:44:19;39.85;;;18.48;;
37647;SDS011;23490;53.656;10.076;2023-02-17T06:46:44;41.45;;;18.25;;
37647;SDS011;23490;53.656;10.076;2023-02-17T06:49:10;45.55;;;19.10;;
37647;SDS011;23490;53.656;10.076;2023-02-17T06:51:36;45.70;;;18.85;;
37647;SDS011;23490;53.656;10.076;2023-02-17T06:54:01;44.30;;;19.35;;
37647;SDS011;23490;53.656;10.076;2023-02-17T06:56:27;38.25;;;18.08;;
37647;SDS011;23490;53.656;10.076;2023-02-17T06:58:52;41.17;;;19.85;;
37647;SDS011;23490;53.656;10.076;2023-02-17T07:01:19;42.67;;;17.65;;
37647;SDS011;23490;53.656;10.076;2023-02-17T07:03:46;47.00;;;21.67;;
37647;SDS011;23490;53.656;10.076;2023-02-17T07:06:12;53.70;;;21.52;;
37647;SDS011;23490;53.656;10.076;2023-02-17T07:08:37;50.05;;;21.80;;
37647;SDS011;23490;53.656;10.076;2023-02-17T07:11:03;48.00;;;21.90;;
37647;SDS011;23490;53.656;10.076;2023-02-17T07:13:30;54.40;;;23.60;;
37647;SDS011;23490;53.656;10.076;2023-02-17T07:15:56;52.70;;;22.77;;
37647;SDS011;23490;53.656;10.076;2023-02-17T07:18:21;50.72;;;21.27;;
37647;SDS011;23490;53.656;10.076;2023-02-17T07:20:46;55.60;;;23.15;;
37647;SDS011;23490;53.656;10.076;2023-02-17T07:23:12;53.95;;;23.17;;
37647;SDS011;23490;53.656;10.076;2023-02-17T07:25:37;51.92;;;22.35;;
37647;SDS011;23490;53.656;10.076;2023-02-17T07:28:03;48.97;;;22.42;;
37647;SDS011;23490;53.656;10.076;2023-02-17T07:30:28;47.05;;;21.02;;
37647;SDS011;23490;53.656;10.076;2023-02-17T07:32:53;48.20;;;22.38;;
37647;SDS011;23490;53.656;10.076;2023-02-17T07:35:19;47.17;;;21.63;;
37647;SDS011;23490;53.656;10.076;2023-02-17T07:37:44;49.42;;;20.30;;
37647;SDS011;23490;53.656;10.076;2023-02-17T07:40:09;54.72;;;23.58;;
37647;SDS011;23490;53.656;10.076;2023-02-17T07:42:35;49.40;;;22.27;;
37647;SDS011;23490;53.656;10.076;2023-02-17T07:45:00;54.28;;;22.58;;
37647;SDS011;23490;53.656;10.076;2023-02-17T07:47:26;57.13;;;22.75;;
37647;SDS011;23490;53.656;10.076;2023-02-17T07:49:51;50.85;;;23.35;;
37647;SDS011;23490;53.656;10.076;2023-02-17T07:52:16;51.58;;;21.55;;
37647;SDS011;23490;53.656;10.076;2023-02-17T07:54:42;51.78;;;23.23;;
37647;SDS011;23490;53.656;10.076;2023-02-17T07:57:08;55.67;;;23.92;;
37647;SDS011;23490;53.656;10.076;2023-02-17T07:59:33;48.60;;;21.90;;
37647;SDS011;23490;53.656;10.076;2023-02-17T08:01:58;50.28;;;22.40;;
37647;SDS011;23490;53.656;10.076;2023-02-17T08:04:24;49.78;;;21.77;;
37647;SDS011;23490;53.656;10.076;2023-02-17T08:06:49;47.85;;;20.63;;
37647;SDS011;23490;53.656;10.076;2023-02-17T08:09:14;47.03;;;20.92;;
37647;SDS011;23490;53.656;10.076;2023-02-17T08:11:58;44.22;;;19.27;;
37647;SDS011;23490;53.656;10.076;2023-02-17T08:14:42;40.38;;;17.23;;
37647;SDS011;23490;53.656;10.076;2023-02-17T08:17:07;42.55;;;19.35;;
37647;SDS011;23490;53.656;10.076;2023-02-17T08:19:33;41.38;;;18.10;;
37647;SDS011;23490;53.656;10.076;2023-02-17T08:21:58;39.85;;;17.15;;
37647;SDS011;23490;53.656;10.076;2023-02-17T08:24:24;40.42;;;18.13;;
37647;SDS011;23490;53.656;10.076;2023-02-17T08:26:51;41.17;;;18.20;;
37647;SDS011;23490;53.656;10.076;2023-02-17T08:29:16;39.88;;;19.50;;
37647;SDS011;23490;53.656;10.076;2023-02-17T08:31:44;36.30;;;17.17;;
37647;SDS011;23490;53.656;10.076;2023-02-17T08:34:09;44.75;;;19.38;;
37647;SDS011;23490;53.656;10.076;2023-02-17T08:36:37;38.15;;;16.58;;
37647;SDS011;23490;53.656;10.076;2023-02-17T08:39:08;38.80;;;17.27;;
37647;SDS011;23490;53.656;10.076;2023-02-17T08:41:36;30.58;;;15.48;;
37647;SDS011;23490;53.656;10.076;2023-02-17T08:44:06;32.25;;;15.40;;
37647;SDS011;23490;53.656;10.076;2023-02-17T08:46:34;30.92;;;13.63;;
37647;SDS011;23490;53.656;10.076;2023-02-17T08:49:00;32.78;;;14.38;;
37647;SDS011;23490;53.656;10.076;2023-02-17T08:51:26;26.52;;;11.98;;
37647;SDS011;23490;53.656;10.076;2023-02-17T08:53:56;29.73;;;13.90;;
37647;SDS011;23490;53.656;10.076;2023-02-17T08:56:23;30.98;;;14.23;;
37647;SDS011;23490;53.656;10.076;2023-02-17T08:58:49;30.48;;;13.82;;
37647;SDS011;23490;53.656;10.076;2023-02-17T09:01:15;31.02;;;15.05;;
37647;SDS011;23490;53.656;10.076;2023-02-17T09:03:43;30.38;;;13.73;;
37647;SDS011;23490;53.656;10.076;2023-02-17T09:06:09;24.45;;;12.27;;
37647;SDS011;23490;53.656;10.076;2023-02-17T09:08:36;25.85;;;12.00;;
37647;SDS011;23490;53.656;10.076;2023-02-17T09:11:03;29.13;;;12.65;;
37647;SDS011;23490;53.656;10.076;2023-02-17T09:13:29;22.05;;;11.57;;
37647;SDS011;23490;53.656;10.076;2023-02-17T09:15:54;24.20;;;11.23;;
37647;SDS011;23490;53.656;10.076;2023-02-17T09:18:20;27.67;;;12.35;;
37647;SDS011;23490;53.656;10.076;2023-02-17T09:20:46;26.67;;;12.57;;
37647;SDS011;23490;53.656;10.076;2023-02-17T09:23:12;26.25;;;12.57;;
37647;SDS011;23490;53.656;10.076;2023-02-17T09:25:38;25.65;;;12.15;;
37647;SDS011;23490;53.656;10.076;2023-02-17T09:28:03;30.20;;;13.48;;
37647;SDS011;23490;53.656;10.076;2023-02-17T09:30:29;29.17;;;13.52;;
37647;SDS011;23490;53.656;10.076;2023-02-17T09:32:55;29.33;;;13.57;;
37647;SDS011;23490;53.656;10.076;2023-02-17T09:35:21;32.63;;;14.77;;
37647;SDS011;23490;53.656;10.076;2023-02-17T09:37:47;28.65;;;14.27;;
37647;SDS011;23490;53.656;10.076;2023-02-17T09:40:19;35.72;;;14.82;;
37647;SDS011;23490;53.656;10.076;2023-02-17T09:42:47;35.58;;;15.45;;
37647;SDS011;23490;53.656;10.076;2023-02-17T09:45:15;28.73;;;13.27;;
37647;SDS011;23490;53.656;10.076;2023-02-17T09:47:56;27.20;;;13.60;;
37647;SDS011;23490;53.656;10.076;2023-02-17T09:50:31;25.65;;;11.88;;
37647;SDS011;23490;53.656;10.076;2023-02-17T09:55:54;30.20;;;12.93;;
37647;SDS011;23490;53.656;10.076;2023-02-17T09:58:42;24.50;;;12.05;;
37647;SDS011;23490;53.656;10.076;2023-02-17T10:01:20;24.37;;;10.37;;
37647;SDS011;23490;53.656;10.076;2023-02-17T10:04:01;24.67;;;10.98;;
37647;SDS011;23490;53.656;10.076;2023-02-17T10:12:25;26.05;;;11.85;;
37647;SDS011;23490;53.656;10.076;2023-02-17T10:15:11;27.63;;;11.77;;
37647;SDS011;23490;53.656;10.076;2023-02-17T10:20:33;27.80;;;13.00;;
37647;SDS011;23490;53.656;10.076;2023-02-17T10:23:06;29.77;;;13.85;;
37647;SDS011;23490;53.656;10.076;2023-02-17T10:31:22;29.13;;;12.73;;
37647;SDS011;23490;53.656;10.076;2023-02-17T10:34:33;31.30;;;12.50;;
37647;SDS011;23490;53.656;10.076;2023-02-17T10:37:01;34.63;;;14.00;;
37647;SDS011;23490;53.656;10.076;2023-02-17T10:39:41;31.00;;;13.20;;
37647;SDS011;23490;53.656;10.076;2023-02-17T10:42:21;30.73;;;14.07;;
37647;SDS011;23490;53.656;10.076;2023-02-17T10:44:48;31.25;;;13.48;;
37647;SDS011;23490;53.656;10.076;2023-02-17T10:47:16;27.60;;;12.93;;
37647;SDS011;23490;53.656;10.076;2023-02-17T10:49:43;31.83;;;13.27;;
37647;SDS011;23490;53.656;10.076;2023-02-17T10:52:35;32.92;;;14.25;;
37647;SDS011;23490;53.656;10.076;2023-02-17T10:55:03;29.75;;;13.68;;
37647;SDS011;23490;53.656;10.076;2023-02-17T10:57:34;28.63;;;13.07;;
37647;SDS011;23490;53.656;10.076;2023-02-17T11:00:03;22.50;;;10.82;;
37647;SDS011;23490;53.656;10.076;2023-02-17T11:04:59;26.67;;;10.32;;
37647;SDS011;23490;53.656;10.076;2023-02-17T11:07:40;24.50;;;10.32;;
37647;SDS011;23490;53.656;10.076;2023-02-17T11:12:49;20.92;;;8.95;;
37647;SDS011;23490;53.656;10.076;2023-02-17T11:15:17;22.88;;;10.07;;
37647;SDS011;23490;53.656;10.076;2023-02-17T11:17:44;25.00;;;10.15;;
37647;SDS011;23490;53.656;10.076;2023-02-17T11:23:02;25.63;;;10.40;;
37647;SDS011;23490;53.656;10.076;2023-02-17T11:25:30;23.05;;;8.30;;
37647;SDS011;23490;53.656;10.076;2023-02-17T11:27:58;21.80;;;9.30;;
37647;SDS011;23490;53.656;10.076;2023-02-17T11:30:26;24.77;;;10.57;;
37647;SDS011;23490;53.656;10.076;2023-02-17T11:32:53;21.35;;;9.15;;
37647;SDS011;23490;53.656;10.076;2023-02-17T11:35:24;22.50;;;9.85;;
37647;SDS011;23490;53.656;10.076;2023-02-17T11:38:09;25.75;;;10.85;;
37647;SDS011;23490;53.656;10.076;2023-02-17T11:40:37;29.67;;;13.00;;
37647;SDS011;23490;53.656;10.076;2023-02-17T11:43:03;28.83;;;13.25;;
37647;SDS011;23490;53.656;10.076;2023-02-17T11:45:40;30.90;;;13.05;;
37647;SDS011;23490;53.656;10.076;2023-02-17T11:48:34;26.90;;;12.43;;
37647;SDS011;23490;53.656;10.076;2023-02-17T11:51:19;27.27;;;11.82;;
37647;SDS011;23490;53.656;10.076;2023-02-17T11:56:28;29.85;;;11.82;;
37647;SDS011;23490;53.656;10.076;2023-02-17T11:59:06;27.55;;;12.70;;
37647;SDS011;23490;53.656;10.076;2023-02-17T12:04:45;27.42;;;10.60;;
37647;SDS011;23490;53.656;10.076;2023-02-17T12:07:37;25.48;;;10.90;;
37647;SDS011;23490;53.656;10.076;2023-02-17T12:10:42;24.77;;;10.55;;
37647;SDS011;23490;53.656;10.076;2023-02-17T12:13:14;24.30;;;10.38;;
37647;SDS011;23490;53.656;10.076;2023-02-17T12:18:32;23.05;;;9.45;;
37647;SDS011;23490;53.656;10.076;2023-02-17T12:24:02;24.38;;;9.73;;
37647;SDS011;23490;53.656;10.076;2023-02-17T12:29:13;24.88;;;10.23;;
37647;SDS011;23490;53.656;10.076;2023-02-17T12:37:20;21.45;;;9.52;;
37647;SDS011;23490;53.656;10.076;2023-02-17T12:42:22;22.55;;;9.73;;
37647;SDS011;23490;53.656;10.076;2023-02-17T12:45:01;18.67;;;8.50;;
37647;SDS011;23490;53.656;10.076;2023-02-17T12:52:53;16.52;;;8.48;;
37647;SDS011;23490;53.656;10.076;2023-02-17T12:55:26;21.15;;;9.98;;
37647;SDS011;23490;53.656;10.076;2023-02-17T12:58:00;18.70;;;8.38;;
37647;SDS011;23490;53.656;10.076;2023-02-17T13:00:35;13.40;;;6.88;;
37647;SDS011;23490;53.656;10.076;2023-02-17T13:03:04;18.70;;;7.35;;
37647;SDS011;23490;53.656;10.076;2023-02-17T13:05:33;16.58;;;6.53;;
37647;SDS011;23490;53.656;10.076;2023-02-17T13:08:18;17.17;;;8.18;;
37647;SDS011;23490;53.656;10.076;2023-02-17T13:10:57;15.45;;;7.18;;
37647;SDS011;23490;53.656;10.076;2023-02-17T13:13:25;15.18;;;5.78;;
37647;SDS011;23490;53.656;10.076;2023-02-17T13:16:11;16.85;;;6.28;;
37647;SDS011;23490;53.656;10.076;2023-02-17T13:18:41;17.80;;;6.60;;
37647;SDS011;23490;53.656;10.076;2023-02-17T13:21:15;15.15;;;6.15;;
37647;SDS011;23490;53.656;10.076;2023-02-17T13:23:45;14.05;;;5.85;;
37647;SDS011;23490;53.656;10.076;2023-02-17T13:28:47;14.90;;;6.53;;
37647;SDS011;23490;53.656;10.076;2023-02-17T13:31:15;13.82;;;5.45;;
37647;SDS011;23490;53.656;10.076;2023-02-17T13:36:19;17.48;;;7.25;;
37647;SDS011;23490;53.656;10.076;2023-02-17T13:39:02;18.55;;;6.68;;
37647;SDS011;23490;53.656;10.076;2023-02-17T13:41:45;16.23;;;5.95;;
37647;SDS011;23490;53.656;10.076;2023-02-17T13:44:32;16.15;;;6.95;;
37647;SDS011;23490;53.656;10.076;2023-02-17T13:47:24;15.95;;;6.55;;
37647;SDS011;23490;53.656;10.076;2023-02-17T13:49:52;14.35;;;6.57;;
37647;SDS011;23490;53.656;10.076;2023-02-17T13:52:23;18.88;;;7.38;;
37647;SDS011;23490;53.656;10.076;2023-02-17T13:54:55;19.05;;;6.80;;
37647;SDS011;23490;53.656;10.076;2023-02-17T13:57:24;15.02;;;7.07;;
37647;SDS011;23490;53.656;10.076;2023-02-17T14:00:03;21.45;;;7.65;;
37647;SDS011;23490;53.656;10.076;2023-02-17T14:05:04;13.05;;;6.18;;
37647;SDS011;23490;53.656;10.076;2023-02-17T14:07:40;15.70;;;6.72;;
37647;SDS011;23490;53.656;10.076;2023-02-17T14:10:14;16.48;;;6.13;;
37647;SDS011;23490;53.656;10.076;2023-02-17T14:12:41;12.95;;;5.53;;
37647;SDS011;23490;53.656;10.076;2023-02-17T14:15:14;10.18;;;4.30;;
37647;SDS011;23490;53.656;10.076;2023-02-17T14:17:43;16.98;;;6.00;;
37647;SDS011;23490;53.656;10.076;2023-02-17T14:23:13;11.48;;;3.97;;
37647;SDS011;23490;53.656;10.076;2023-02-17T14:25:40;9.23;;;3.33;;
37647;SDS011;23490;53.656;10.076;2023-02-17T14:28:23;14.00;;;3.25;;
37647;SDS011;23490;53.656;10.076;2023-02-17T14:30:51;8.23;;;2.35;;
37647;SDS011;23490;53.656;10.076;2023-02-17T14:33:23;6.35;;;1.85;;
37647;SDS011;23490;53.656;10.076;2023-02-17T14:35:54;5.63;;;1.60;;
37647;SDS011;23490;53.656;10.076;2023-02-17T14:41:01;8.63;;;2.33;;
37647;SDS011;23490;53.656;10.076;2023-02-17T14:43:27;9.13;;;2.30;;
37647;SDS011;23490;53.656;10.076;2023-02-17T14:45:52;9.45;;;2.38;;
37647;SDS011;23490;53.656;10.076;2023-02-17T14:48:18;7.32;;;2.10;;
37647;SDS011;23490;53.656;10.076;2023-02-17T14:50:43;11.40;;;2.08;;
37647;SDS011;23490;53.656;10.076;2023-02-17T14:53:16;15.55;;;2.65;;
37647;SDS011;23490;53.656;10.076;2023-02-17T14:55:52;12.30;;;2.17;;
37647;SDS011;23490;53.656;10.076;2023-02-17T14:58:24;15.73;;;2.70;;
37647;SDS011;23490;53.656;10.076;2023-02-17T15:00:50;13.75;;;3.25;;
37647;SDS011;23490;53.656;10.076;2023-02-17T15:03:16;12.48;;;2.97;;
37647;SDS011;23490;53.656;10.076;2023-02-17T15:05:42;9.85;;;2.20;;
37647;SDS011;23490;53.656;10.076;2023-02-17T15:08:12;11.48;;;1.98;;
37647;SDS011;23490;53.656;10.076;2023-02-17T15:10:40;11.18;;;2.67;;
37647;SDS011;23490;53.656;10.076;2023-02-17T15:13:10;13.82;;;2.35;;
37647;SDS011;23490;53.656;10.076;2023-02-17T15:15:38;16.00;;;2.10;;
37647;SDS011;23490;53.656;10.076;2023-02-17T15:18:07;12.93;;;3.15;;
37647;SDS011;23490;53.656;10.076;2023-02-17T15:20:32;10.57;;;2.40;;
37647;SDS011;23490;53.656;10.076;2023-02-17T15:22:57;11.93;;;2.28;;
37647;SDS011;23490;53.656;10.076;2023-02-17T15:25:23;12.60;;;3.28;;
37647;SDS011;23490;53.656;10.076;2023-02-17T15:27:48;18.40;;;3.05;;
37647;SDS011;23490;53.656;10.076;2023-02-17T15:30:18;17.23;;;3.50;;
37647;SDS011;23490;53.656;10.076;2023-02-17T15:32:44;20.95;;;3.08;;
37647;SDS011;23490;53.656;10.076;2023-02-17T15:35:20;16.27;;;2.50;;
37647;SDS011;23490;53.656;10.076;2023-02-17T15:37:47;21.10;;;3.75;;
37647;SDS011;23490;53.656;10.076;2023-02-17T15:40:14;17.92;;;3.40;;
37647;SDS011;23490;53.656;10.076;2023-02-17T15:42:41;12.02;;;3.28;;
37647;SDS011;23490;53.656;10.076;2023-02-17T15:45:15;16.05;;;2.70;;
37647;SDS011;23490;53.656;10.076;2023-02-17T15:47:44;13.80;;;2.70;;
37647;SDS011;23490;53.656;10.076;2023-02-17T15:50:12;18.73;;;2.97;;